sensor_id;sensor_type;location;lat;lon;timestamp;P1;durP1;ratioP1;P2;durP2;ratioP2
14847;SDS011;7516;43.570;1.448;2023-07-29T00:00:59;4.07;;;3.40;;
14847;SDS011;7516;43.570;1.448;2023-07-29T00:03:27;3.97;;;3.53;;
14847;SDS011;7516;43.570;1.448;2023-07-29T00:05:55;4.10;;;3.58;;
14847;SDS011;7516;43.570;1.448;2023-07-29T00:08:23;4.05;;;3.65;;
14847;SDS011;7516;43.570;1.448;2023-07-29T00:10:50;4.25;;;3.42;;
14847;SDS011;7516;43.570;1.448;2023-07-29T00:13:18;4.22;;;3.70;;
14847;SDS011;7516;43.570;1.448;2023-07-29T00:15:45;3.92;;;3.50;;
14847;SDS011;7516;43.570;1.448;2023-07-29T00:18:14;4.25;;;3.63;;
14847;SDS011;7516;43.570;1.448;2023-07-29T00:20:41;5.00;;;3.35;;
14847;SDS011;7516;43.570;1.448;2023-07-29T00:23:10;3.92;;;3.20;;
14847;SDS011;7516;43.570;1.448;2023-07-29T00:25:37;4.50;;;3.40;;
14847;SDS011;7516;43.570;1.448;2023-07-29T00:28:05;4.75;;;3.55;;
14847;SDS011;7516;43.570;1.448;2023-07-29T00:30:32;4.95;;;3.45;;
14847;SDS011;7516;43.570;1.448;2023-07-29T00:33:00;5.22;;;3.40;;
14847;SDS011;7516;43.570;1.448;2023-07-29T00:35:29;4.38;;;3.78;;
14847;SDS011;7516;43.570;1.448;2023-07-29T00:37:56;4.00;;;3.60;;
14847;SDS011;7516;43.570;1.448;2023-07-29T00:40:24;4.50;;;3.78;;
14847;SDS011;7516;43.570;1.448;2023-07-29T00:42:54;4.18;;;3.50;;
14847;SDS011;7516;43.570;1.448;2023-07-29T00:45:21;4.55;;;3.45;;
14847;SDS011;7516;43.570;1.448;2023-07-29T00:47:51;4.38;;;3.47;;
14847;SDS011;7516;43.570;1.448;2023-07-29T00:50:18;4.38;;;3.28;;
14847;SDS011;7516;43.570;1.448;2023-07-29T00:52:47;4.38;;;3.80;;
14847;SDS011;7516;43.570;1.448;2023-07-29T00:55:15;4.93;;;3.97;;
14847;SDS011;7516;43.570;1.448;2023-07-29T00:57:43;4.20;;;3.80;;
14847;SDS011;7516;43.570;1.448;2023-07-29T01:00:13;4.13;;;3.72;;
14847;SDS011;7516;43.570;1.448;2023-07-29T01:02:41;4.45;;;4.05;;
14847;SDS011;7516;43.570;1.448;2023-07-29T01:05:10;4.68;;;4.00;;
14847;SDS011;7516;43.570;1.448;2023-07-29T01:07:41;3.63;;;3.33;;
14847;SDS011;7516;43.570;1.448;2023-07-29T01:10:19;4.93;;;3.50;;
14847;SDS011;7516;43.570;1.448;2023-07-29T01:13:02;4.07;;;3.63;;
14847;SDS011;7516;43.570;1.448;2023-07-29T01:15:39;4.63;;;4.18;;
14847;SDS011;7516;43.570;1.448;2023-07-29T01:18:12;4.68;;;3.75;;
14847;SDS011;7516;43.570;1.448;2023-07-29T01:20:45;4.50;;;3.70;;
14847;SDS011;7516;43.570;1.448;2023-07-29T01:23:15;3.80;;;3.40;;
14847;SDS011;7516;43.570;1.448;2023-07-29T01:25:49;3.70;;;3.30;;
14847;SDS011;7516;43.570;1.448;2023-07-29T01:28:16;4.15;;;3.50;;
14847;SDS011;7516;43.570;1.448;2023-07-29T01:30:44;4.88;;;3.20;;
14847;SDS011;7516;43.570;1.448;2023-07-29T01:33:16;4.40;;;3.60;;
14847;SDS011;7516;43.570;1.448;2023-07-29T01:35:46;3.47;;;3.17;;
14847;SDS011;7516;43.570;1.448;2023-07-29T01:38:18;3.55;;;3.20;;
14847;SDS011;7516;43.570;1.448;2023-07-29T01:40:53;4.20;;;3.45;;
14847;SDS011;7516;43.570;1.448;2023-07-29T01:43:22;3.60;;;3.30;;
14847;SDS011;7516;43.570;1.448;2023-07-29T01:45:51;3.15;;;2.85;;
14847;SDS011;7516;43.570;1.448;2023-07-29T01:48:18;3.60;;;3.30;;
14847;SDS011;7516;43.570;1.448;2023-07-29T01:50:46;3.90;;;3.30;;
14847;SDS011;7516;43.570;1.448;2023-07-29T01:53:13;4.18;;;3.38;;
14847;SDS011;7516;43.570;1.448;2023-07-29T01:55:42;3.92;;;3.53;;
14847;SDS011;7516;43.570;1.448;2023-07-29T01:58:10;3.97;;;3.60;;
14847;SDS011;7516;43.570;1.448;2023-07-29T02:00:38;4.68;;;4.00;;
14847;SDS011;7516;43.570;1.448;2023-07-29T02:03:05;3.70;;;3.30;;
14847;SDS011;7516;43.570;1.448;2023-07-29T02:05:33;4.68;;;3.70;;
14847;SDS011;7516;43.570;1.448;2023-07-29T02:08:00;3.67;;;3.38;;
14847;SDS011;7516;43.570;1.448;2023-07-29T02:10:28;5.80;;;3.92;;
14847;SDS011;7516;43.570;1.448;2023-07-29T02:12:57;4.15;;;3.75;;
14847;SDS011;7516;43.570;1.448;2023-07-29T02:15:24;4.00;;;3.60;;
14847;SDS011;7516;43.570;1.448;2023-07-29T02:17:52;5.50;;;3.78;;
14847;SDS011;7516;43.570;1.448;2023-07-29T02:20:19;5.10;;;3.90;;
14847;SDS011;7516;43.570;1.448;2023-07-29T02:22:46;4.70;;;3.67;;
14847;SDS011;7516;43.570;1.448;2023-07-29T02:25:14;4.50;;;4.07;;
14847;SDS011;7516;43.570;1.448;2023-07-29T02:27:42;4.90;;;3.67;;
14847;SDS011;7516;43.570;1.448;2023-07-29T02:30:11;4.00;;;3.60;;
14847;SDS011;7516;43.570;1.448;2023-07-29T02:32:38;4.07;;;3.78;;
14847;SDS011;7516;43.570;1.448;2023-07-29T02:35:06;4.10;;;3.67;;
14847;SDS011;7516;43.570;1.448;2023-07-29T02:37:35;4.18;;;3.72;;
14847;SDS011;7516;43.570;1.448;2023-07-29T02:40:02;4.95;;;3.95;;
14847;SDS011;7516;43.570;1.448;2023-07-29T02:42:31;4.53;;;4.13;;
14847;SDS011;7516;43.570;1.448;2023-07-29T02:44:58;3.80;;;3.50;;
14847;SDS011;7516;43.570;1.448;2023-07-29T02:47:27;4.05;;;3.75;;
14847;SDS011;7516;43.570;1.448;2023-07-29T02:49:54;4.68;;;3.80;;
14847;SDS011;7516;43.570;1.448;2023-07-29T02:52:22;4.03;;;3.63;;
14847;SDS011;7516;43.570;1.448;2023-07-29T02:54:49;4.25;;;3.80;;
14847;SDS011;7516;43.570;1.448;2023-07-29T02:57:17;4.13;;;3.78;;
14847;SDS011;7516;43.570;1.448;2023-07-29T02:59:44;4.20;;;3.80;;
14847;SDS011;7516;43.570;1.448;2023-07-29T03:02:12;4.57;;;4.15;;
14847;SDS011;7516;43.570;1.448;2023-07-29T03:04:42;5.35;;;4.40;;
14847;SDS011;7516;43.570;1.448;2023-07-29T03:07:10;4.18;;;3.78;;
14847;SDS011;7516;43.570;1.448;2023-07-29T03:09:38;5.28;;;4.22;;
14847;SDS011;7516;43.570;1.448;2023-07-29T03:12:07;4.30;;;3.83;;
14847;SDS011;7516;43.570;1.448;2023-07-29T03:14:34;4.78;;;3.97;;
14847;SDS011;7516;43.570;1.448;2023-07-29T03:17:02;4.40;;;3.97;;
14847;SDS011;7516;43.570;1.448;2023-07-29T03:19:30;5.18;;;3.75;;
14847;SDS011;7516;43.570;1.448;2023-07-29T03:21:59;4.60;;;3.67;;
14847;SDS011;7516;43.570;1.448;2023-07-29T03:24:26;4.15;;;3.72;;
14847;SDS011;7516;43.570;1.448;2023-07-29T03:26:54;4.35;;;3.83;;
14847;SDS011;7516;43.570;1.448;2023-07-29T03:29:21;5.03;;;4.40;;
14847;SDS011;7516;43.570;1.448;2023-07-29T03:31:49;4.65;;;4.15;;
14847;SDS011;7516;43.570;1.448;2023-07-29T03:34:16;4.43;;;3.90;;
14847;SDS011;7516;43.570;1.448;2023-07-29T03:36:44;4.43;;;4.03;;
14847;SDS011;7516;43.570;1.448;2023-07-29T03:39:14;4.30;;;3.90;;
14847;SDS011;7516;43.570;1.448;2023-07-29T03:41:42;5.78;;;4.10;;
14847;SDS011;7516;43.570;1.448;2023-07-29T03:44:09;6.18;;;4.10;;
14847;SDS011;7516;43.570;1.448;2023-07-29T03:46:36;5.53;;;3.90;;
14847;SDS011;7516;43.570;1.448;2023-07-29T03:49:04;4.38;;;3.85;;
14847;SDS011;7516;43.570;1.448;2023-07-29T03:51:31;4.97;;;4.25;;
14847;SDS011;7516;43.570;1.448;2023-07-29T03:53:59;4.45;;;4.05;;
14847;SDS011;7516;43.570;1.448;2023-07-29T03:56:28;4.22;;;3.83;;
14847;SDS011;7516;43.570;1.448;2023-07-29T03:59:01;6.45;;;4.03;;
14847;SDS011;7516;43.570;1.448;2023-07-29T04:01:29;4.78;;;4.30;;
14847;SDS011;7516;43.570;1.448;2023-07-29T04:03:57;6.07;;;3.85;;
14847;SDS011;7516;43.570;1.448;2023-07-29T04:06:25;3.90;;;3.35;;
14847;SDS011;7516;43.570;1.448;2023-07-29T04:08:52;5.40;;;4.45;;
14847;SDS011;7516;43.570;1.448;2023-07-29T04:11:20;4.72;;;4.32;;
14847;SDS011;7516;43.570;1.448;2023-07-29T04:13:49;4.25;;;3.72;;
14847;SDS011;7516;43.570;1.448;2023-07-29T04:16:16;4.95;;;3.83;;
14847;SDS011;7516;43.570;1.448;2023-07-29T04:18:44;4.82;;;3.92;;
14847;SDS011;7516;43.570;1.448;2023-07-29T04:21:11;4.30;;;3.88;;
14847;SDS011;7516;43.570;1.448;2023-07-29T04:23:39;4.63;;;4.13;;
14847;SDS011;7516;43.570;1.448;2023-07-29T04:26:06;4.75;;;4.22;;
14847;SDS011;7516;43.570;1.448;2023-07-29T04:28:34;4.28;;;3.38;;
14847;SDS011;7516;43.570;1.448;2023-07-29T04:31:02;4.05;;;3.65;;
14847;SDS011;7516;43.570;1.448;2023-07-29T04:33:30;5.68;;;3.90;;
14847;SDS011;7516;43.570;1.448;2023-07-29T04:35:57;4.15;;;3.75;;
14847;SDS011;7516;43.570;1.448;2023-07-29T04:38:29;4.57;;;3.78;;
14847;SDS011;7516;43.570;1.448;2023-07-29T04:40:58;3.88;;;3.53;;
14847;SDS011;7516;43.570;1.448;2023-07-29T04:43:27;3.83;;;3.53;;
14847;SDS011;7516;43.570;1.448;2023-07-29T04:45:56;6.70;;;3.80;;
14847;SDS011;7516;43.570;1.448;2023-07-29T04:48:25;4.03;;;3.63;;
14847;SDS011;7516;43.570;1.448;2023-07-29T04:50:53;4.95;;;3.72;;
14847;SDS011;7516;43.570;1.448;2023-07-29T04:53:20;4.25;;;3.50;;
14847;SDS011;7516;43.570;1.448;2023-07-29T04:55:48;6.30;;;4.05;;
14847;SDS011;7516;43.570;1.448;2023-07-29T04:58:15;3.85;;;3.45;;
14847;SDS011;7516;43.570;1.448;2023-07-29T05:00:43;5.07;;;3.22;;
14847;SDS011;7516;43.570;1.448;2023-07-29T05:03:12;4.60;;;3.38;;
14847;SDS011;7516;43.570;1.448;2023-07-29T05:05:41;6.03;;;3.60;;
14847;SDS011;7516;43.570;1.448;2023-07-29T05:08:08;4.03;;;3.63;;
14847;SDS011;7516;43.570;1.448;2023-07-29T05:10:36;4.03;;;3.63;;
14847;SDS011;7516;43.570;1.448;2023-07-29T05:13:03;6.32;;;3.50;;
14847;SDS011;7516;43.570;1.448;2023-07-29T05:15:30;7.22;;;3.75;;
14847;SDS011;7516;43.570;1.448;2023-07-29T05:17:58;4.53;;;3.70;;
14847;SDS011;7516;43.570;1.448;2023-07-29T05:20:25;4.18;;;3.55;;
14847;SDS011;7516;43.570;1.448;2023-07-29T05:22:54;5.25;;;3.30;;
14847;SDS011;7516;43.570;1.448;2023-07-29T05:25:22;4.25;;;3.35;;
14847;SDS011;7516;43.570;1.448;2023-07-29T05:27:49;4.63;;;3.60;;
14847;SDS011;7516;43.570;1.448;2023-07-29T05:30:17;4.85;;;3.88;;
14847;SDS011;7516;43.570;1.448;2023-07-29T05:32:44;3.50;;;3.20;;
14847;SDS011;7516;43.570;1.448;2023-07-29T05:35:12;4.55;;;3.60;;
14847;SDS011;7516;43.570;1.448;2023-07-29T05:37:39;4.43;;;3.95;;
14847;SDS011;7516;43.570;1.448;2023-07-29T05:40:09;4.53;;;3.55;;
14847;SDS011;7516;43.570;1.448;2023-07-29T05:42:36;3.70;;;3.40;;
14847;SDS011;7516;43.570;1.448;2023-07-29T05:45:04;4.70;;;4.07;;
14847;SDS011;7516;43.570;1.448;2023-07-29T05:47:33;4.82;;;3.90;;
14847;SDS011;7516;43.570;1.448;2023-07-29T05:50:00;4.30;;;3.90;;
14847;SDS011;7516;43.570;1.448;2023-07-29T05:52:29;4.68;;;3.65;;
14847;SDS011;7516;43.570;1.448;2023-07-29T05:54:57;4.03;;;3.42;;
14847;SDS011;7516;43.570;1.448;2023-07-29T05:57:26;5.13;;;3.50;;
14847;SDS011;7516;43.570;1.448;2023-07-29T05:59:54;4.25;;;3.80;;
14847;SDS011;7516;43.570;1.448;2023-07-29T06:02:21;4.32;;;3.75;;
14847;SDS011;7516;43.570;1.448;2023-07-29T06:04:49;4.13;;;3.70;;
14847;SDS011;7516;43.570;1.448;2023-07-29T06:07:17;4.10;;;3.70;;
14847;SDS011;7516;43.570;1.448;2023-07-29T06:09:45;4.40;;;4.00;;
14847;SDS011;7516;43.570;1.448;2023-07-29T06:12:13;5.30;;;4.13;;
14847;SDS011;7516;43.570;1.448;2023-07-29T06:14:42;4.75;;;4.00;;
14847;SDS011;7516;43.570;1.448;2023-07-29T06:17:09;4.85;;;4.38;;
14847;SDS011;7516;43.570;1.448;2023-07-29T06:19:37;5.03;;;3.70;;
14847;SDS011;7516;43.570;1.448;2023-07-29T06:22:05;4.32;;;3.58;;
14847;SDS011;7516;43.570;1.448;2023-07-29T06:24:32;4.95;;;3.90;;
14847;SDS011;7516;43.570;1.448;2023-07-29T06:26:59;4.30;;;3.83;;
14847;SDS011;7516;43.570;1.448;2023-07-29T06:29:27;8.13;;;4.93;;
14847;SDS011;7516;43.570;1.448;2023-07-29T06:31:58;6.40;;;4.85;;
14847;SDS011;7516;43.570;1.448;2023-07-29T06:34:25;5.43;;;4.88;;
14847;SDS011;7516;43.570;1.448;2023-07-29T06:36:53;5.55;;;4.85;;
14847;SDS011;7516;43.570;1.448;2023-07-29T06:39:20;5.80;;;5.28;;
14847;SDS011;7516;43.570;1.448;2023-07-29T06:41:47;6.57;;;4.55;;
14847;SDS011;7516;43.570;1.448;2023-07-29T06:44:15;5.53;;;4.30;;
14847;SDS011;7516;43.570;1.448;2023-07-29T06:46:42;5.68;;;5.18;;
14847;SDS011;7516;43.570;1.448;2023-07-29T06:49:11;7.13;;;5.03;;
14847;SDS011;7516;43.570;1.448;2023-07-29T06:51:39;6.68;;;5.22;;
14847;SDS011;7516;43.570;1.448;2023-07-29T06:54:06;5.90;;;5.30;;
14847;SDS011;7516;43.570;1.448;2023-07-29T06:56:34;6.30;;;5.05;;
14847;SDS011;7516;43.570;1.448;2023-07-29T06:59:02;7.00;;;5.32;;
14847;SDS011;7516;43.570;1.448;2023-07-29T07:01:29;5.53;;;4.70;;
14847;SDS011;7516;43.570;1.448;2023-07-29T07:03:57;5.57;;;5.00;;
14847;SDS011;7516;43.570;1.448;2023-07-29T07:06:25;7.25;;;5.22;;
14847;SDS011;7516;43.570;1.448;2023-07-29T07:08:53;5.90;;;4.90;;
14847;SDS011;7516;43.570;1.448;2023-07-29T07:11:20;8.15;;;4.82;;
14847;SDS011;7516;43.570;1.448;2023-07-29T07:13:48;7.50;;;5.43;;
14847;SDS011;7516;43.570;1.448;2023-07-29T07:16:15;5.80;;;4.85;;
14847;SDS011;7516;43.570;1.448;2023-07-29T07:18:43;6.38;;;5.25;;
14847;SDS011;7516;43.570;1.448;2023-07-29T07:21:11;5.60;;;5.00;;
14847;SDS011;7516;43.570;1.448;2023-07-29T07:23:39;6.40;;;5.35;;
14847;SDS011;7516;43.570;1.448;2023-07-29T07:26:07;5.82;;;5.22;;
14847;SDS011;7516;43.570;1.448;2023-07-29T07:28:34;6.70;;;4.70;;
14847;SDS011;7516;43.570;1.448;2023-07-29T07:31:02;5.25;;;4.50;;
14847;SDS011;7516;43.570;1.448;2023-07-29T07:33:29;6.05;;;4.93;;
14847;SDS011;7516;43.570;1.448;2023-07-29T07:35:57;5.75;;;4.75;;
14847;SDS011;7516;43.570;1.448;2023-07-29T07:38:24;6.70;;;5.15;;
14847;SDS011;7516;43.570;1.448;2023-07-29T07:40:54;5.80;;;5.20;;
14847;SDS011;7516;43.570;1.448;2023-07-29T07:43:22;6.10;;;4.63;;
14847;SDS011;7516;43.570;1.448;2023-07-29T07:45:49;5.55;;;4.97;;
14847;SDS011;7516;43.570;1.448;2023-07-29T07:48:17;7.05;;;5.30;;
14847;SDS011;7516;43.570;1.448;2023-07-29T07:50:45;6.10;;;5.50;;
14847;SDS011;7516;43.570;1.448;2023-07-29T07:53:12;5.30;;;4.80;;
14847;SDS011;7516;43.570;1.448;2023-07-29T07:55:40;5.90;;;4.70;;
14847;SDS011;7516;43.570;1.448;2023-07-29T07:58:09;5.57;;;4.80;;
14847;SDS011;7516;43.570;1.448;2023-07-29T08:00:36;5.03;;;4.53;;
14847;SDS011;7516;43.570;1.448;2023-07-29T08:03:03;6.53;;;5.20;;
14847;SDS011;7516;43.570;1.448;2023-07-29T08:05:31;5.22;;;4.68;;
14847;SDS011;7516;43.570;1.448;2023-07-29T08:07:59;5.25;;;4.32;;
14847;SDS011;7516;43.570;1.448;2023-07-29T08:10:26;5.35;;;4.85;;
14847;SDS011;7516;43.570;1.448;2023-07-29T08:12:53;5.20;;;4.70;;
14847;SDS011;7516;43.570;1.448;2023-07-29T08:15:22;5.47;;;4.50;;
14847;SDS011;7516;43.570;1.448;2023-07-29T08:17:50;5.30;;;4.80;;
14847;SDS011;7516;43.570;1.448;2023-07-29T08:20:17;5.55;;;4.90;;
14847;SDS011;7516;43.570;1.448;2023-07-29T08:22:45;6.10;;;4.97;;
14847;SDS011;7516;43.570;1.448;2023-07-29T08:25:12;5.22;;;4.53;;
14847;SDS011;7516;43.570;1.448;2023-07-29T08:27:40;4.82;;;4.15;;
14847;SDS011;7516;43.570;1.448;2023-07-29T08:30:08;4.47;;;4.07;;
14847;SDS011;7516;43.570;1.448;2023-07-29T08:32:37;5.03;;;4.47;;
14847;SDS011;7516;43.570;1.448;2023-07-29T08:35:04;4.38;;;3.97;;
14847;SDS011;7516;43.570;1.448;2023-07-29T08:37:32;4.57;;;4.00;;
14847;SDS011;7516;43.570;1.448;2023-07-29T08:40:00;4.65;;;3.78;;
14847;SDS011;7516;43.570;1.448;2023-07-29T08:42:28;5.30;;;3.95;;
14847;SDS011;7516;43.570;1.448;2023-07-29T08:44:58;4.45;;;3.90;;
14847;SDS011;7516;43.570;1.448;2023-07-29T08:47:32;4.40;;;4.00;;
14847;SDS011;7516;43.570;1.448;2023-07-29T08:50:01;4.50;;;3.85;;
14847;SDS011;7516;43.570;1.448;2023-07-29T08:52:31;5.85;;;3.85;;
14847;SDS011;7516;43.570;1.448;2023-07-29T08:55:00;4.95;;;3.67;;
14847;SDS011;7516;43.570;1.448;2023-07-29T08:57:28;3.90;;;3.50;;
14847;SDS011;7516;43.570;1.448;2023-07-29T08:59:57;6.25;;;3.60;;
14847;SDS011;7516;43.570;1.448;2023-07-29T09:02:27;5.93;;;4.00;;
14847;SDS011;7516;43.570;1.448;2023-07-29T09:04:55;4.72;;;3.63;;
14847;SDS011;7516;43.570;1.448;2023-07-29T09:07:24;4.50;;;3.60;;
14847;SDS011;7516;43.570;1.448;2023-07-29T09:09:52;5.78;;;3.97;;
14847;SDS011;7516;43.570;1.448;2023-07-29T09:12:19;5.70;;;3.80;;
14847;SDS011;7516;43.570;1.448;2023-07-29T09:14:49;4.97;;;4.20;;
14847;SDS011;7516;43.570;1.448;2023-07-29T09:17:19;5.50;;;4.00;;
14847;SDS011;7516;43.570;1.448;2023-07-29T09:19:47;3.83;;;3.53;;
14847;SDS011;7516;43.570;1.448;2023-07-29T09:22:18;4.13;;;3.72;;
14847;SDS011;7516;43.570;1.448;2023-07-29T09:24:47;6.03;;;4.03;;
14847;SDS011;7516;43.570;1.448;2023-07-29T09:27:25;5.10;;;3.75;;
14847;SDS011;7516;43.570;1.448;2023-07-29T09:29:53;5.47;;;3.92;;
14847;SDS011;7516;43.570;1.448;2023-07-29T09:32:22;4.20;;;3.78;;
14847;SDS011;7516;43.570;1.448;2023-07-29T09:34:51;4.65;;;3.97;;
14847;SDS011;7516;43.570;1.448;2023-07-29T09:37:20;6.15;;;4.00;;
14847;SDS011;7516;43.570;1.448;2023-07-29T09:39:49;4.55;;;4.07;;
14847;SDS011;7516;43.570;1.448;2023-07-29T09:42:18;4.68;;;3.90;;
14847;SDS011;7516;43.570;1.448;2023-07-29T09:44:46;3.90;;;3.60;;
14847;SDS011;7516;43.570;1.448;2023-07-29T09:47:20;3.92;;;3.50;;
14847;SDS011;7516;43.570;1.448;2023-07-29T09:49:49;4.13;;;3.70;;
14847;SDS011;7516;43.570;1.448;2023-07-29T09:52:17;4.55;;;4.05;;
14847;SDS011;7516;43.570;1.448;2023-07-29T09:54:46;4.40;;;3.88;;
14847;SDS011;7516;43.570;1.448;2023-07-29T09:57:16;5.55;;;3.88;;
14847;SDS011;7516;43.570;1.448;2023-07-29T09:59:53;7.93;;;4.03;;
14847;SDS011;7516;43.570;1.448;2023-07-29T10:02:21;4.57;;;3.90;;
14847;SDS011;7516;43.570;1.448;2023-07-29T10:04:50;4.20;;;3.80;;
14847;SDS011;7516;43.570;1.448;2023-07-29T10:07:19;5.32;;;3.72;;
14847;SDS011;7516;43.570;1.448;2023-07-29T10:09:47;3.80;;;3.40;;
14847;SDS011;7516;43.570;1.448;2023-07-29T10:12:19;5.65;;;3.75;;
14847;SDS011;7516;43.570;1.448;2023-07-29T10:14:48;4.72;;;3.55;;
14847;SDS011;7516;43.570;1.448;2023-07-29T10:17:16;4.53;;;3.78;;
14847;SDS011;7516;43.570;1.448;2023-07-29T10:19:46;4.40;;;3.75;;
14847;SDS011;7516;43.570;1.448;2023-07-29T10:22:14;3.92;;;3.60;;
14847;SDS011;7516;43.570;1.448;2023-07-29T10:24:46;4.05;;;3.50;;
14847;SDS011;7516;43.570;1.448;2023-07-29T10:27:15;4.20;;;3.80;;
14847;SDS011;7516;43.570;1.448;2023-07-29T10:29:48;4.78;;;4.15;;
14847;SDS011;7516;43.570;1.448;2023-07-29T10:32:16;5.00;;;3.58;;
14847;SDS011;7516;43.570;1.448;2023-07-29T10:34:46;5.13;;;3.80;;
14847;SDS011;7516;43.570;1.448;2023-07-29T10:37:14;4.28;;;3.88;;
14847;SDS011;7516;43.570;1.448;2023-07-29T10:39:51;4.93;;;3.58;;
14847;SDS011;7516;43.570;1.448;2023-07-29T10:42:21;5.20;;;3.78;;
14847;SDS011;7516;43.570;1.448;2023-07-29T10:44:49;4.53;;;3.63;;
14847;SDS011;7516;43.570;1.448;2023-07-29T10:47:18;3.85;;;3.45;;
14847;SDS011;7516;43.570;1.448;2023-07-29T10:49:49;4.65;;;3.50;;
14847;SDS011;7516;43.570;1.448;2023-07-29T10:52:29;4.00;;;3.60;;
14847;SDS011;7516;43.570;1.448;2023-07-29T10:54:58;4.13;;;3.40;;
14847;SDS011;7516;43.570;1.448;2023-07-29T10:57:33;4.55;;;3.35;;
14847;SDS011;7516;43.570;1.448;2023-07-29T11:00:02;4.30;;;3.70;;
14847;SDS011;7516;43.570;1.448;2023-07-29T11:02:32;3.80;;;3.50;;
14847;SDS011;7516;43.570;1.448;2023-07-29T11:05:04;3.92;;;3.53;;
14847;SDS011;7516;43.570;1.448;2023-07-29T11:07:36;4.65;;;3.85;;
14847;SDS011;7516;43.570;1.448;2023-07-29T11:10:11;4.40;;;3.67;;
14847;SDS011;7516;43.570;1.448;2023-07-29T11:12:41;4.38;;;3.95;;
14847;SDS011;7516;43.570;1.448;2023-07-29T11:15:14;6.53;;;3.83;;
14847;SDS011;7516;43.570;1.448;2023-07-29T11:17:44;4.30;;;3.90;;
14847;SDS011;7516;43.570;1.448;2023-07-29T11:20:13;4.65;;;3.83;;
14847;SDS011;7516;43.570;1.448;2023-07-29T11:22:41;4.07;;;3.67;;
14847;SDS011;7516;43.570;1.448;2023-07-29T11:25:09;4.60;;;3.75;;
14847;SDS011;7516;43.570;1.448;2023-07-29T11:27:38;3.95;;;3.50;;
14847;SDS011;7516;43.570;1.448;2023-07-29T11:30:07;4.88;;;3.60;;
14847;SDS011;7516;43.570;1.448;2023-07-29T11:32:36;4.22;;;3.67;;
14847;SDS011;7516;43.570;1.448;2023-07-29T11:35:05;4.50;;;4.10;;
14847;SDS011;7516;43.570;1.448;2023-07-29T11:37:35;4.68;;;3.58;;
14847;SDS011;7516;43.570;1.448;2023-07-29T11:40:04;3.75;;;3.42;;
14847;SDS011;7516;43.570;1.448;2023-07-29T11:42:34;4.55;;;3.67;;
14847;SDS011;7516;43.570;1.448;2023-07-29T11:45:03;5.35;;;3.53;;
14847;SDS011;7516;43.570;1.448;2023-07-29T11:47:32;3.95;;;3.55;;
14847;SDS011;7516;43.570;1.448;2023-07-29T11:50:02;5.47;;;4.05;;
14847;SDS011;7516;43.570;1.448;2023-07-29T11:52:31;5.18;;;4.10;;
14847;SDS011;7516;43.570;1.448;2023-07-29T11:55:00;4.82;;;3.53;;
14847;SDS011;7516;43.570;1.448;2023-07-29T11:57:28;4.63;;;3.42;;
14847;SDS011;7516;43.570;1.448;2023-07-29T11:59:56;7.03;;;4.32;;
14847;SDS011;7516;43.570;1.448;2023-07-29T12:02:25;5.55;;;3.95;;
14847;SDS011;7516;43.570;1.448;2023-07-29T12:04:53;4.82;;;4.15;;
14847;SDS011;7516;43.570;1.448;2023-07-29T12:07:20;5.03;;;3.85;;
14847;SDS011;7516;43.570;1.448;2023-07-29T12:09:48;4.97;;;3.50;;
14847;SDS011;7516;43.570;1.448;2023-07-29T12:12:16;4.20;;;3.80;;
14847;SDS011;7516;43.570;1.448;2023-07-29T12:14:44;5.25;;;4.50;;
14847;SDS011;7516;43.570;1.448;2023-07-29T12:17:12;4.95;;;4.30;;
14847;SDS011;7516;43.570;1.448;2023-07-29T12:19:42;4.57;;;4.18;;
14847;SDS011;7516;43.570;1.448;2023-07-29T12:22:10;5.20;;;4.40;;
14847;SDS011;7516;43.570;1.448;2023-07-29T12:24:38;4.43;;;4.03;;
14847;SDS011;7516;43.570;1.448;2023-07-29T12:27:10;5.88;;;4.13;;
14847;SDS011;7516;43.570;1.448;2023-07-29T12:29:42;4.57;;;4.13;;
14847;SDS011;7516;43.570;1.448;2023-07-29T12:32:11;5.85;;;4.43;;
14847;SDS011;7516;43.570;1.448;2023-07-29T12:34:39;6.03;;;4.20;;
14847;SDS011;7516;43.570;1.448;2023-07-29T12:37:08;4.70;;;4.20;;
14847;SDS011;7516;43.570;1.448;2023-07-29T12:39:39;5.28;;;4.30;;
14847;SDS011;7516;43.570;1.448;2023-07-29T12:42:07;6.03;;;4.35;;
14847;SDS011;7516;43.570;1.448;2023-07-29T12:44:35;5.35;;;4.57;;
14847;SDS011;7516;43.570;1.448;2023-07-29T12:47:03;4.70;;;4.30;;
14847;SDS011;7516;43.570;1.448;2023-07-29T12:49:33;8.70;;;4.35;;
14847;SDS011;7516;43.570;1.448;2023-07-29T12:52:02;4.57;;;4.18;;
14847;SDS011;7516;43.570;1.448;2023-07-29T12:54:30;5.28;;;4.70;;
14847;SDS011;7516;43.570;1.448;2023-07-29T12:56:58;5.82;;;4.60;;
14847;SDS011;7516;43.570;1.448;2023-07-29T12:59:25;5.22;;;4.72;;
14847;SDS011;7516;43.570;1.448;2023-07-29T13:01:52;4.90;;;4.50;;
14847;SDS011;7516;43.570;1.448;2023-07-29T13:04:20;4.82;;;4.43;;
14847;SDS011;7516;43.570;1.448;2023-07-29T13:06:47;6.40;;;4.75;;
14847;SDS011;7516;43.570;1.448;2023-07-29T13:09:16;5.43;;;4.85;;
14847;SDS011;7516;43.570;1.448;2023-07-29T13:11:43;5.75;;;4.30;;
14847;SDS011;7516;43.570;1.448;2023-07-29T13:14:11;6.35;;;4.70;;
14847;SDS011;7516;43.570;1.448;2023-07-29T13:16:39;6.15;;;4.30;;
14847;SDS011;7516;43.570;1.448;2023-07-29T13:19:06;4.65;;;4.25;;
14847;SDS011;7516;43.570;1.448;2023-07-29T13:21:33;4.82;;;4.32;;
14847;SDS011;7516;43.570;1.448;2023-07-29T13:24:01;5.70;;;4.63;;
14847;SDS011;7516;43.570;1.448;2023-07-29T13:26:29;4.70;;;3.97;;
14847;SDS011;7516;43.570;1.448;2023-07-29T13:28:56;3.92;;;3.60;;
14847;SDS011;7516;43.570;1.448;2023-07-29T13:31:24;4.63;;;4.20;;
14847;SDS011;7516;43.570;1.448;2023-07-29T13:33:51;4.53;;;4.13;;
14847;SDS011;7516;43.570;1.448;2023-07-29T13:36:19;5.63;;;4.05;;
14847;SDS011;7516;43.570;1.448;2023-07-29T13:38:46;5.75;;;4.00;;
14847;SDS011;7516;43.570;1.448;2023-07-29T13:41:13;5.38;;;4.30;;
14847;SDS011;7516;43.570;1.448;2023-07-29T13:43:42;4.22;;;3.70;;
14847;SDS011;7516;43.570;1.448;2023-07-29T13:46:10;3.95;;;3.55;;
14847;SDS011;7516;43.570;1.448;2023-07-29T13:48:37;5.60;;;3.90;;
14847;SDS011;7516;43.570;1.448;2023-07-29T13:51:05;5.75;;;4.13;;
14847;SDS011;7516;43.570;1.448;2023-07-29T13:53:32;4.20;;;3.78;;
14847;SDS011;7516;43.570;1.448;2023-07-29T13:56:00;4.85;;;3.90;;
14847;SDS011;7516;43.570;1.448;2023-07-29T13:58:27;4.85;;;3.95;;
14847;SDS011;7516;43.570;1.448;2023-07-29T14:00:56;6.07;;;4.13;;
14847;SDS011;7516;43.570;1.448;2023-07-29T14:03:23;3.95;;;3.53;;
14847;SDS011;7516;43.570;1.448;2023-07-29T14:05:51;6.07;;;3.90;;
14847;SDS011;7516;43.570;1.448;2023-07-29T14:08:18;4.40;;;3.60;;
14847;SDS011;7516;43.570;1.448;2023-07-29T14:10:48;4.35;;;3.75;;
14847;SDS011;7516;43.570;1.448;2023-07-29T14:13:15;4.55;;;4.15;;
14847;SDS011;7516;43.570;1.448;2023-07-29T14:15:43;4.65;;;4.15;;
14847;SDS011;7516;43.570;1.448;2023-07-29T14:18:12;5.43;;;4.25;;
14847;SDS011;7516;43.570;1.448;2023-07-29T14:20:39;4.28;;;3.70;;
14847;SDS011;7516;43.570;1.448;2023-07-29T14:23:07;4.30;;;3.83;;
14847;SDS011;7516;43.570;1.448;2023-07-29T14:25:34;5.10;;;4.25;;
14847;SDS011;7516;43.570;1.448;2023-07-29T14:28:02;4.90;;;4.38;;
14847;SDS011;7516;43.570;1.448;2023-07-29T14:30:29;4.22;;;3.83;;
14847;SDS011;7516;43.570;1.448;2023-07-29T14:32:57;4.07;;;3.70;;
14847;SDS011;7516;43.570;1.448;2023-07-29T14:35:26;5.07;;;4.30;;
14847;SDS011;7516;43.570;1.448;2023-07-29T14:37:53;5.00;;;3.80;;
14847;SDS011;7516;43.570;1.448;2023-07-29T14:40:20;4.50;;;4.10;;
14847;SDS011;7516;43.570;1.448;2023-07-29T14:42:48;4.22;;;3.83;;
14847;SDS011;7516;43.570;1.448;2023-07-29T14:45:15;4.82;;;4.43;;
14847;SDS011;7516;43.570;1.448;2023-07-29T14:47:43;4.47;;;4.07;;
14847;SDS011;7516;43.570;1.448;2023-07-29T14:50:10;7.30;;;4.00;;
14847;SDS011;7516;43.570;1.448;2023-07-29T14:52:39;4.45;;;3.92;;
14847;SDS011;7516;43.570;1.448;2023-07-29T14:55:07;4.18;;;3.72;;
14847;SDS011;7516;43.570;1.448;2023-07-29T14:57:35;4.40;;;3.80;;
14847;SDS011;7516;43.570;1.448;2023-07-29T15:00:03;5.63;;;4.40;;
14847;SDS011;7516;43.570;1.448;2023-07-29T15:02:32;4.70;;;4.20;;
14847;SDS011;7516;43.570;1.448;2023-07-29T15:04:59;5.07;;;4.05;;
14847;SDS011;7516;43.570;1.448;2023-07-29T15:07:27;4.22;;;3.83;;